Time;durP1;ratioP1;P1;durP2;ratioP2;P2;SDS_P1;SDS_P2;PMS_P1;PMS_P2;Temp;Humidity;BMP_temperature;BMP_pressure;BME280_temperature;BME280_humidity;BME280_pressure;Samples;Min_cycle;Max_cycle;Signal;HPM_P1;HPM_P2
2022/12/20 00:00:21;;;;;;;38.77;25.57;;;3.10;40.90;;;;;;4978979;28;20456;-70
2022/12/20 00:02:48;;;;;;;36.30;22.97;;;3.10;40.80;;;;;;4976774;28;20462;-71
2022/12/20 00:05:15;;;;;;;37.07;24.40;;;3.00;40.70;;;;;;4975802;28;20964;-70
2022/12/20 00:07:42;;;;;;;35.00;22.87;;;3.00;40.70;;;;;;4978122;28;20492;-71
2022/12/20 00:10:09;;;;;;;37.43;23.70;;;3.00;40.70;;;;;;4977050;28;20467;-71
2022/12/20 00:12:36;;;;;;;37.63;24.63;;;3.00;40.70;;;;;;4977430;28;20471;-70
2022/12/20 00:15:03;;;;;;;33.50;23.00;;;3.00;40.70;;;;;;4978948;28;20461;-70
2022/12/20 00:17:31;;;;;;;33.07;23.20;;;3.00;40.80;;;;;;4977345;28;20483;-69
2022/12/20 00:19:58;;;;;;;34.10;20.90;;;3.10;40.80;;;;;;4974742;28;20522;-70
2022/12/20 00:22:25;;;;;;;30.83;20.60;;;3.10;40.70;;;;;;4973312;28;20471;-71
2022/12/20 00:24:52;;;;;;;34.17;21.47;;;3.00;40.70;;;;;;4976505;28;20978;-71
2022/12/20 00:27:18;;;;;;;34.37;21.57;;;3.10;40.80;;;;;;4985008;28;21053;-70
2022/12/20 00:29:45;;;;;;;31.60;20.37;;;3.10;40.90;;;;;;4977516;28;20496;-70
2022/12/20 00:32:12;;;;;;;29.90;19.50;;;3.10;40.80;;;;;;4978725;28;20489;-70
2022/12/20 00:34:40;;;;;;;29.30;19.63;;;3.10;40.80;;;;;;4983487;23;20497;-62
2022/12/20 00:37:07;;;;;;;33.83;21.17;;;3.10;40.90;;;;;;4968205;28;20480;-62
2022/12/20 00:39:33;;;;;;;29.80;20.40;;;3.00;40.90;;;;;;4969550;28;20461;-62
2022/12/20 00:42:00;;;;;;;30.97;21.10;;;3.00;41.00;;;;;;4965927;28;20499;-62
2022/12/20 00:44:27;;;;;;;32.43;23.27;;;3.00;41.00;;;;;;4959425;28;20504;-62
2022/12/20 00:46:54;;;;;;;35.10;22.03;;;2.90;41.00;;;;;;4967528;28;20466;-62
2022/12/20 00:49:21;;;;;;;33.70;23.20;;;2.90;40.90;;;;;;4966708;28;20468;-62
2022/12/20 00:51:49;;;;;;;34.47;21.03;;;2.90;41.00;;;;;;4962395;28;20473;-65
2022/12/20 00:54:16;;;;;;;32.87;24.30;;;2.90;41.00;;;;;;4970218;28;20488;-63
2022/12/20 00:56:42;;;;;;;36.40;22.10;;;3.00;40.90;;;;;;4966669;28;20949;-63
2022/12/20 00:59:09;;;;;;;37.73;24.37;;;3.00;41.00;;;;;;4963693;28;20477;-63
2022/12/20 01:01:36;;;;;;;35.43;22.73;;;2.90;40.70;;;;;;4970285;28;20497;-63
2022/12/20 01:04:03;;;;;;;30.73;21.60;;;2.90;40.90;;;;;;4967376;28;20485;-63
2022/12/20 01:06:30;;;;;;;32.90;21.10;;;2.90;40.90;;;;;;4968062;28;20461;-63
2022/12/20 01:08:59;;;;;;;32.97;22.10;;;2.80;40.80;;;;;;4968155;28;20469;-63
2022/12/20 01:11:27;;;;;;;34.83;21.40;;;2.80;40.80;;;;;;4968558;28;20477;-63
2022/12/20 01:13:56;;;;;;;33.17;20.47;;;2.80;40.90;;;;;;4968964;28;20496;-63
2022/12/20 01:16:24;;;;;;;28.73;18.90;;;2.70;40.80;;;;;;4967297;28;20958;-63
2022/12/20 01:18:52;;;;;;;35.27;21.33;;;2.70;40.80;;;;;;4962939;28;20468;-63
2022/12/20 01:21:20;;;;;;;31.73;21.40;;;2.70;40.90;;;;;;4967899;28;20454;-62
2022/12/20 01:23:47;;;;;;;33.30;21.83;;;2.70;40.90;;;;;;4965605;28;20477;-62
2022/12/20 01:26:17;;;;;;;31.57;21.27;;;2.60;40.70;;;;;;4963162;28;20466;-62
2022/12/20 01:28:47;;;;;;;31.73;20.97;;;2.60;40.70;;;;;;4967725;28;20465;-62
2022/12/20 01:31:15;;;;;;;32.57;20.17;;;2.60;40.80;;;;;;4966994;28;20478;-62
2022/12/20 01:33:43;;;;;;;33.03;21.23;;;2.60;41.00;;;;;;4966842;28;20551;-62
2022/12/20 01:36:14;;;;;;;33.30;19.93;;;2.60;40.80;;;;;;4966440;28;20831;-62
2022/12/20 01:38:40;;;;;;;31.87;20.70;;;2.60;40.90;;;;;;4964680;28;20947;-62
2022/12/20 01:41:07;;;;;;;33.03;20.33;;;2.60;40.90;;;;;;4965240;28;20950;-62
2022/12/20 01:43:49;;;;;;;32.03;20.17;;;2.60;40.90;;;;;;4967466;28;20489;-62
2022/12/20 01:46:16;;;;;;;29.57;19.93;;;2.60;41.10;;;;;;4966255;28;20524;-62
2022/12/20 01:48:46;;;;;;;33.00;19.70;;;2.50;40.90;;;;;;4968503;28;20469;-62
2022/12/20 01:51:13;;;;;;;31.40;21.07;;;2.50;41.20;;;;;;4964465;28;21008;-62
2022/12/20 01:53:40;;;;;;;34.53;20.07;;;2.60;41.30;;;;;;4964449;28;21208;-62
2022/12/20 01:56:08;;;;;;;29.80;19.50;;;2.60;41.70;;;;;;4965253;28;20830;-62
2022/12/20 01:58:38;;;;;;;32.97;20.07;;;2.60;41.80;;;;;;4968263;28;20471;-62
2022/12/20 02:01:06;;;;;;;34.33;19.67;;;2.60;41.70;;;;;;4965234;28;22369;-62
2022/12/20 02:03:33;;;;;;;27.73;20.00;;;2.60;41.70;;;;;;4967128;28;20485;-62
2022/12/20 02:06:14;;;;;;;32.03;20.97;;;2.60;41.70;;;;;;4964744;28;20462;-62
2022/12/20 02:08:41;;;;;;;33.50;20.40;;;2.50;41.90;;;;;;4961815;28;20465;-62
2022/12/20 02:11:18;;;;;;;37.57;21.67;;;2.50;41.70;;;;;;4964015;28;20492;-62
2022/12/20 02:13:56;;;;;;;29.77;18.20;;;2.40;41.50;;;;;;4963251;28;20524;-62
2022/12/20 02:16:27;;;;;;;32.20;18.90;;;2.40;41.50;;;;;;4964576;28;20493;-62
2022/12/20 02:19:00;;;;;;;31.27;18.70;;;2.40;41.50;;;;;;4965201;28;20469;-62
2022/12/20 02:21:36;;;;;;;31.47;19.77;;;2.30;41.60;;;;;;4962928;28;20995;-62
2022/12/20 02:24:47;;;;;;;32.87;20.20;;;2.30;41.60;;;;;;4964522;28;21006;-62
2022/12/20 02:27:34;;;;;;;27.53;18.80;;;2.30;41.70;;;;;;4967628;28;20949;-62
2022/12/20 02:30:14;;;;;;;29.23;17.80;;;2.30;41.70;;;;;;4963560;28;20973;-62
2022/12/20 02:32:47;;;;;;;33.30;18.13;;;2.20;41.60;;;;;;4967342;28;20489;-62
2022/12/20 02:35:18;;;;;;;29.87;20.03;;;2.20;41.60;;;;;;4966043;28;20489;-62
2022/12/20 02:37:52;;;;;;;32.27;20.73;;;2.20;41.90;;;;;;4967356;28;20465;-62
2022/12/20 02:40:23;;;;;;;34.20;20.50;;;2.30;42.10;;;;;;4965462;28;20461;-62
2022/12/20 02:42:52;;;;;;;28.93;19.53;;;2.30;42.80;;;;;;4964931;28;20966;-62
2022/12/20 02:45:24;;;;;;;36.70;20.70;;;2.30;42.00;;;;;;4958658;28;20489;-62
2022/12/20 02:47:55;;;;;;;32.50;19.50;;;2.30;42.00;;;;;;4963761;28;20462;-63
2022/12/20 02:50:27;;;;;;;35.03;19.70;;;2.30;42.00;;;;;;4964450;28;20840;-62
2022/12/20 02:52:55;;;;;;;33.30;20.50;;;2.30;42.00;;;;;;4964613;28;20477;-62
2022/12/20 02:55:28;;;;;;;32.23;19.00;;;2.30;41.90;;;;;;4962207;28;20516;-63
2022/12/20 02:58:01;;;;;;;31.23;18.70;;;2.40;42.00;;;;;;4967740;28;20950;-62
2022/12/20 03:00:33;;;;;;;37.00;20.13;;;2.40;41.90;;;;;;4962564;28;20466;-62
2022/12/20 03:05:47;;;;;;;33.60;19.70;;;2.50;42.00;;;;;;4962543;28;20454;-62
2022/12/20 03:08:14;;;;;;;32.30;19.60;;;2.50;41.70;;;;;;4965969;28;20465;-62
2022/12/20 03:10:41;;;;;;;26.93;17.10;;;2.50;42.00;;;;;;4966195;28;20473;-63
2022/12/20 03:13:08;;;;;;;34.37;21.40;;;2.50;41.80;;;;;;4960891;28;20861;-62
2022/12/20 03:15:36;;;;;;;29.97;18.43;;;2.60;41.80;;;;;;4964705;28;20485;-62
2022/12/20 03:18:04;;;;;;;32.10;19.00;;;2.60;41.90;;;;;;4962355;28;20458;-62
2022/12/20 03:20:31;;;;;;;31.93;18.37;;;2.60;42.20;;;;;;4967265;28;20461;-62
2022/12/20 03:22:57;;;;;;;25.80;17.30;;;2.60;42.40;;;;;;4965216;28;20481;-62
2022/12/20 03:25:24;;;;;;;29.40;17.47;;;2.60;42.40;;;;;;4963849;28;20994;-62
2022/12/20 03:27:51;;;;;;;26.40;17.80;;;2.60;42.60;;;;;;4964951;28;20469;-63
2022/12/20 03:30:18;;;;;;;25.17;16.07;;;2.60;42.60;;;;;;4966468;28;20465;-62
2022/12/20 03:32:46;;;;;;;28.70;17.00;;;2.60;42.60;;;;;;4964057;28;20494;-62
2022/12/20 03:35:13;;;;;;;28.60;17.60;;;2.60;42.60;;;;;;4964309;28;20489;-62
2022/12/20 03:37:40;;;;;;;28.10;16.57;;;2.60;42.40;;;;;;4963442;28;20469;-62
2022/12/20 03:40:08;;;;;;;27.37;16.97;;;2.60;42.60;;;;;;4963617;28;20469;-62
2022/12/20 03:42:35;;;;;;;25.60;15.17;;;2.60;42.60;;;;;;4960468;28;20455;-62
2022/12/20 03:45:02;;;;;;;25.03;16.07;;;2.60;42.60;;;;;;4965589;28;20485;-62
2022/12/20 03:47:29;;;;;;;28.77;15.40;;;2.60;42.40;;;;;;4963497;28;20465;-62
2022/12/20 03:49:57;;;;;;;26.40;15.30;;;2.60;42.30;;;;;;4965290;28;20495;-62
2022/12/20 03:52:24;;;;;;;23.70;14.67;;;2.50;42.30;;;;;;4964454;28;20486;-62
2022/12/20 03:54:51;;;;;;;24.80;16.10;;;2.60;42.20;;;;;;4967076;28;20517;-62
2022/12/20 03:57:17;;;;;;;25.03;15.53;;;2.60;42.10;;;;;;4966382;28;20462;-62
2022/12/20 03:59:44;;;;;;;25.43;17.13;;;2.60;41.90;;;;;;4961781;28;20481;-62
2022/12/20 04:02:12;;;;;;;28.73;16.30;;;2.60;41.80;;;;;;4969141;28;20508;-62
2022/12/20 04:04:38;;;;;;;27.97;16.23;;;2.70;42.10;;;;;;4965471;28;20980;-62
2022/12/20 04:07:07;;;;;;;26.50;17.00;;;2.70;42.10;;;;;;4969755;28;20461;-62
2022/12/20 04:09:33;;;;;;;30.43;18.10;;;2.70;42.80;;;;;;4968050;28;20462;-62
2022/12/20 04:12:00;;;;;;;29.90;17.30;;;2.70;42.30;;;;;;4964402;28;20478;-62
2022/12/20 04:14:27;;;;;;;24.37;15.07;;;2.80;42.00;;;;;;4964962;28;20481;-62
2022/12/20 04:16:54;;;;;;;23.23;15.27;;;2.70;41.90;;;;;;4968982;28;20469;-62
2022/12/20 04:19:21;;;;;;;27.00;15.87;;;2.70;41.90;;;;;;4967415;28;20470;-62
2022/12/20 04:21:47;;;;;;;25.20;15.17;;;2.70;42.00;;;;;;4969555;28;20477;-62
2022/12/20 04:24:16;;;;;;;23.50;16.10;;;2.70;42.00;;;;;;4963314;28;20485;-62
2022/12/20 04:26:42;;;;;;;27.03;16.10;;;2.70;42.00;;;;;;4968331;28;20520;-62
2022/12/20 04:29:09;;;;;;;25.63;16.10;;;2.70;41.80;;;;;;4963850;28;20462;-62
2022/12/20 04:31:36;;;;;;;25.10;16.67;;;2.70;41.80;;;;;;4968682;28;20475;-62
2022/12/20 04:34:03;;;;;;;25.73;16.63;;;2.70;41.70;;;;;;4966803;28;20497;-62
2022/12/20 04:36:29;;;;;;;29.27;17.10;;;2.70;41.80;;;;;;4965594;28;20473;-63
2022/12/20 04:38:56;;;;;;;24.37;14.90;;;2.80;42.00;;;;;;4968275;28;20893;-62
2022/12/20 04:41:25;;;;;;;22.63;15.33;;;2.80;42.10;;;;;;4967873;28;20464;-62
2022/12/20 04:43:54;;;;;;;21.40;14.53;;;2.80;42.10;;;;;;4966224;28;20520;-62
2022/12/20 04:46:22;;;;;;;21.07;15.43;;;2.80;42.00;;;;;;4970577;28;20462;-62
2022/12/20 04:48:49;;;;;;;24.63;15.40;;;2.80;41.90;;;;;;4967873;28;20469;-62
2022/12/20 04:51:16;;;;;;;23.93;15.13;;;2.70;41.90;;;;;;4963558;28;20470;-62
2022/12/20 04:53:48;;;;;;;27.27;15.40;;;2.70;41.60;;;;;;4966092;28;20500;-62
2022/12/20 04:56:17;;;;;;;23.10;15.00;;;2.60;41.50;;;;;;4962175;28;20961;-62
2022/12/20 04:58:45;;;;;;;22.97;14.23;;;2.60;41.40;;;;;;4968091;28;20462;-62
2022/12/20 05:01:12;;;;;;;23.33;15.83;;;2.60;41.40;;;;;;4966118;28;20492;-62
2022/12/20 05:03:39;;;;;;;24.10;14.67;;;2.50;41.40;;;;;;4966071;28;20478;-62
2022/12/20 05:06:07;;;;;;;25.97;16.13;;;2.50;41.50;;;;;;4960596;28;20469;-62
2022/12/20 05:08:34;;;;;;;31.73;17.53;;;2.50;41.50;;;;;;4958461;28;20464;-61
2022/12/20 05:11:01;;;;;;;30.30;17.40;;;2.50;41.50;;;;;;4966863;28;20467;-67
2022/12/20 05:13:28;;;;;;;30.20;17.60;;;2.60;41.50;;;;;;4960526;28;20497;-67
2022/12/20 05:15:57;;;;;;;31.23;17.30;;;2.60;41.50;;;;;;4967745;28;20813;-67
2022/12/20 05:18:24;;;;;;;29.03;17.30;;;2.70;41.60;;;;;;4964965;28;20461;-68
2022/12/20 05:26:16;;;;;;;25.17;16.87;;;2.70;41.70;;;;;;4965013;28;20466;-68
2022/12/20 05:26:26;;;;;;;28.23;16.90;;;2.80;41.60;;;;;;4962758;28;20456;-68
2022/12/20 05:28:53;;;;;;;26.50;16.00;;;2.80;41.60;;;;;;4967708;28;20462;-68
2022/12/20 05:31:21;;;;;;;31.00;16.70;;;2.90;41.60;;;;;;4967606;28;20477;-68
2022/12/20 05:33:48;;;;;;;26.17;15.53;;;2.90;41.60;;;;;;4956050;28;20489;-68
2022/12/20 05:36:15;;;;;;;24.07;14.50;;;2.90;41.60;;;;;;4964485;28;20454;-68
2022/12/20 05:38:41;;;;;;;45.03;15.80;;;2.90;41.60;;;;;;4965226;28;20458;-68
2022/12/20 05:41:08;;;;;;;27.47;15.70;;;3.00;41.50;;;;;;4968976;28;20462;-69
2022/12/20 05:43:35;;;;;;;25.63;15.57;;;3.00;41.50;;;;;;4962287;28;20505;-69
2022/12/20 05:46:02;;;;;;;24.20;15.67;;;3.00;41.30;;;;;;4958999;28;20489;-68
2022/12/20 05:48:30;;;;;;;26.97;17.73;;;3.00;41.30;;;;;;4966591;28;20466;-64
2022/12/20 05:50:57;;;;;;;24.67;15.70;;;3.10;41.30;;;;;;4967112;28;20461;-63
2022/12/20 05:53:25;;;;;;;27.57;16.60;;;3.10;41.20;;;;;;4967719;28;20482;-64
2022/12/20 05:55:53;;;;;;;29.70;16.97;;;3.10;41.20;;;;;;4966798;28;20472;-63
2022/12/20 05:58:20;;;;;;;28.03;17.03;;;3.10;41.20;;;;;;4967841;28;20584;-63
2022/12/20 06:00:47;;;;;;;28.63;18.00;;;3.10;41.20;;;;;;4962308;28;20505;-63
2022/12/20 06:03:14;;;;;;;24.57;16.67;;;3.10;41.20;;;;;;4963732;28;20458;-63
2022/12/20 06:05:43;;;;;;;22.23;14.30;;;3.10;41.10;;;;;;4963723;28;20895;-62
2022/12/20 06:08:11;;;;;;;28.93;17.33;;;3.10;41.10;;;;;;4964272;28;20819;-65
2022/12/20 06:10:40;;;;;;;30.37;15.57;;;3.10;41.00;;;;;;4964853;28;20477;-62
2022/12/20 06:13:07;;;;;;;29.37;17.33;;;3.10;41.00;;;;;;4970910;28;20485;-63
2022/12/20 06:15:34;;;;;;;31.40;18.33;;;3.10;40.70;;;;;;4961368;28;20496;-65
2022/12/20 06:18:01;;;;;;;26.63;16.10;;;3.10;40.80;;;;;;4965827;28;20472;-64
2022/12/20 06:20:28;;;;;;;26.00;16.93;;;3.10;40.60;;;;;;4967487;28;20461;-64
2022/12/20 06:22:57;;;;;;;26.57;16.97;;;3.10;40.70;;;;;;4966872;28;20462;-63
2022/12/20 06:25:24;;;;;;;26.90;16.13;;;3.10;40.70;;;;;;4965919;28;20481;-64
2022/12/20 06:27:51;;;;;;;27.17;16.77;;;3.10;40.80;;;;;;4966365;28;20462;-64
2022/12/20 06:30:19;;;;;;;32.70;19.10;;;3.10;40.90;;;;;;4964378;28;20465;-64
2022/12/20 06:32:46;;;;;;;24.47;16.00;;;3.10;40.90;;;;;;4965867;28;20493;-64
2022/12/20 06:35:14;;;;;;;25.53;15.70;;;3.10;40.90;;;;;;4967198;28;20493;-64
2022/12/20 06:37:41;;;;;;;30.33;16.67;;;3.10;40.90;;;;;;4974115;23;20584;-63
2022/12/20 06:40:13;;;;;;;27.33;16.73;;;3.10;40.80;;;;;;4963673;28;20461;-62
2022/12/20 06:42:40;;;;;;;29.97;17.70;;;3.10;40.80;;;;;;4958447;28;20458;-65
2022/12/20 06:45:08;;;;;;;26.23;17.13;;;3.10;40.80;;;;;;4966806;28;20951;-64
2022/12/20 06:47:36;;;;;;;27.33;16.37;;;3.10;40.80;;;;;;4963146;28;20489;-65
2022/12/20 06:50:03;;;;;;;24.10;16.43;;;3.10;40.90;;;;;;4966327;28;20548;-63
2022/12/20 06:52:30;;;;;;;25.33;15.33;;;3.20;40.80;;;;;;4962483;28;20532;-64
2022/12/20 06:54:57;;;;;;;29.67;17.63;;;3.10;40.80;;;;;;4957032;28;20473;-64
2022/12/20 06:57:25;;;;;;;26.23;16.60;;;3.10;40.80;;;;;;4965373;28;20542;-66
2022/12/20 06:59:52;;;;;;;27.50;16.03;;;3.10;40.80;;;;;;4962238;28;20470;-66
2022/12/20 07:02:19;;;;;;;26.53;15.80;;;3.10;40.80;;;;;;4962719;28;21085;-67
2022/12/20 07:04:46;;;;;;;27.43;16.60;;;3.10;41.00;;;;;;4964273;28;20525;-64
2022/12/20 07:07:14;;;;;;;25.17;16.00;;;3.20;41.00;;;;;;4962261;28;20483;-69
2022/12/20 07:09:41;;;;;;;22.60;14.13;;;3.20;41.00;;;;;;4964133;28;20469;-71
2022/12/20 07:12:09;;;;;;;25.10;15.50;;;3.20;41.10;;;;;;4962459;28;20541;-69
2022/12/20 07:14:37;;;;;;;25.80;15.23;;;3.30;41.20;;;;;;4966929;28;20572;-69
2022/12/20 07:17:05;;;;;;;33.40;15.80;;;3.30;41.30;;;;;;4971207;28;20497;-70
2022/12/20 07:19:32;;;;;;;22.90;15.23;;;3.30;41.10;;;;;;4964295;28;20558;-67
2022/12/20 07:21:59;;;;;;;24.30;16.03;;;3.30;41.20;;;;;;4965590;28;20462;-69
2022/12/20 07:24:26;;;;;;;25.03;15.67;;;3.30;41.20;;;;;;4966546;28;20453;-70
2022/12/20 07:26:53;;;;;;;24.80;16.80;;;3.30;41.20;;;;;;4961820;28;20995;-69
2022/12/20 07:29:20;;;;;;;26.73;15.37;;;3.30;41.20;;;;;;4966497;28;20540;-67
2022/12/20 07:31:49;;;;;;;24.97;16.70;;;3.40;41.10;;;;;;4962844;28;21112;-67
2022/12/20 07:34:16;;;;;;;26.00;17.97;;;3.40;41.10;;;;;;4968564;28;20544;-68
2022/12/20 07:36:43;;;;;;;29.03;18.20;;;3.40;41.00;;;;;;4971840;28;20508;-69
2022/12/20 07:39:11;;;;;;;25.77;18.30;;;3.50;40.90;;;;;;4972824;28;20547;-69
2022/12/20 07:41:38;;;;;;;25.43;18.13;;;3.50;40.80;;;;;;4970065;28;20540;-69
2022/12/20 07:44:05;;;;;;;32.47;18.27;;;3.60;40.60;;;;;;4971179;28;20461;-69
2022/12/20 07:46:32;;;;;;;32.03;17.43;;;3.70;40.60;;;;;;4973047;28;21003;-69
2022/12/20 07:49:00;;;;;;;32.90;17.30;;;3.70;40.60;;;;;;4974008;28;21104;-70
2022/12/20 07:51:31;;;;;;;27.80;19.57;;;3.70;40.30;;;;;;4967419;28;20512;-70
2022/12/20 07:54:03;;;;;;;32.00;21.20;;;3.80;40.20;;;;;;4971735;28;20569;-70
2022/12/20 07:56:32;;;;;;;32.90;18.57;;;3.80;40.30;;;;;;4969002;28;20503;-68
2022/12/20 07:59:01;;;;;;;29.13;19.07;;;3.90;40.00;;;;;;4973764;28;20468;-68
2022/12/20 08:01:30;;;;;;;36.00;20.47;;;3.90;39.90;;;;;;4971444;28;20480;-69
2022/12/20 08:04:04;;;;;;;28.70;17.73;;;4.00;39.70;;;;;;4972818;28;21023;-70
2022/12/20 08:06:32;;;;;;;24.83;16.97;;;4.00;39.60;;;;;;4974982;28;20485;-70
2022/12/20 08:09:03;;;;;;;29.43;18.33;;;4.10;39.50;;;;;;4971534;28;20523;-70
2022/12/20 08:11:31;;;;;;;32.30;18.70;;;4.20;39.40;;;;;;4969896;28;20465;-70
2022/12/20 08:13:58;;;;;;;26.47;17.10;;;4.20;39.20;;;;;;4966581;28;20522;-70
2022/12/20 08:16:25;;;;;;;25.90;17.27;;;4.30;39.90;;;;;;4969377;28;20556;-73
2022/12/20 08:18:53;;;;;;;29.30;18.13;;;4.30;39.20;;;;;;4976423;28;20470;-73
2022/12/20 08:21:21;;;;;;;32.50;18.03;;;4.40;39.10;;;;;;4970062;28;20481;-76
2022/12/20 08:23:48;;;;;;;30.20;17.70;;;4.40;38.80;;;;;;4969211;28;20458;-75
2022/12/20 08:26:16;;;;;;;26.13;16.50;;;4.50;38.60;;;;;;4969700;28;20502;-72
2022/12/20 08:28:43;;;;;;;29.13;16.00;;;4.60;38.50;;;;;;4964231;28;20460;-74
2022/12/20 08:31:11;;;;;;;26.17;17.03;;;4.60;38.40;;;;;;4970790;28;20477;-76
2022/12/20 08:33:39;;;;;;;28.37;17.17;;;4.60;38.40;;;;;;4969286;28;20481;-62
2022/12/20 08:36:09;;;;;;;27.90;19.00;;;4.60;38.30;;;;;;4966493;28;20493;-70
2022/12/20 08:38:38;;;;;;;29.33;17.67;;;4.70;38.40;;;;;;4969298;28;20465;-70
2022/12/20 08:41:07;;;;;;;25.20;16.53;;;4.70;38.30;;;;;;4974148;28;20538;-70
2022/12/20 08:43:35;;;;;;;28.73;18.20;;;4.80;38.40;;;;;;4968686;28;20904;-70
2022/12/20 08:46:02;;;;;;;23.80;16.43;;;4.70;38.20;;;;;;4966555;28;20470;-70
2022/12/20 08:48:29;;;;;;;27.00;16.27;;;4.90;38.20;;;;;;4969721;28;20460;-66
2022/12/20 08:50:56;;;;;;;25.13;17.07;;;5.00;37.80;;;;;;4967742;28;20464;-66
2022/12/20 08:53:24;;;;;;;23.70;16.13;;;5.00;37.80;;;;;;4965011;28;20576;-64
2022/12/20 08:55:53;;;;;;;25.70;16.50;;;5.10;37.70;;;;;;4959611;28;20563;-64
2022/12/20 08:58:20;;;;;;;26.73;17.13;;;5.10;37.60;;;;;;4965799;28;20462;-63
2022/12/20 09:00:47;;;;;;;24.53;16.50;;;5.20;37.20;;;;;;4960112;28;20489;-71
2022/12/20 09:03:14;;;;;;;27.47;18.00;;;5.20;36.90;;;;;;4965296;28;20462;-76
2022/12/20 09:05:46;;;;;;;24.23;15.70;;;5.20;36.70;;;;;;4968127;28;20520;-74
2022/12/20 09:08:14;;;;;;;24.47;14.90;;;5.20;36.70;;;;;;4962709;28;20592;-68
2022/12/20 09:10:41;;;;;;;24.80;16.57;;;5.30;36.90;;;;;;4964466;28;21052;-77
2022/12/20 09:13:10;;;;;;;24.23;14.77;;;5.30;37.00;;;;;;4968104;28;20996;-71
2022/12/20 09:15:37;;;;;;;24.57;15.97;;;5.30;36.90;;;;;;4959485;28;20532;-64
2022/12/20 09:18:05;;;;;;;26.83;15.70;;;5.30;36.90;;;;;;4965453;28;20497;-73
2022/12/20 09:20:32;;;;;;;29.60;17.10;;;5.30;37.00;;;;;;4967003;28;21033;-78
2022/12/20 09:22:59;;;;;;;29.73;14.40;;;5.40;37.00;;;;;;4974217;28;20990;-74
2022/12/20 09:25:27;;;;;;;23.70;16.20;;;5.40;36.90;;;;;;4966668;28;20472;-72
2022/12/20 09:27:55;;;;;;;23.47;15.87;;;5.40;36.60;;;;;;4967416;28;20484;-68
2022/12/20 09:30:23;;;;;;;21.83;15.53;;;5.50;36.20;;;;;;4960584;28;20938;-71
2022/12/20 09:32:51;;;;;;;22.77;15.53;;;5.50;36.30;;;;;;4966496;28;20462;-71
2022/12/20 09:35:18;;;;;;;26.17;17.10;;;5.50;36.30;;;;;;4963818;28;20485;-72
2022/12/20 09:37:45;;;;;;;25.77;16.83;;;5.50;36.30;;;;;;4965967;28;20556;-70
2022/12/20 09:40:19;;;;;;;23.03;15.00;;;5.50;36.30;;;;;;4967600;28;20465;-70
2022/12/20 09:42:47;;;;;;;26.67;17.80;;;5.50;35.90;;;;;;4971960;28;20521;-74
2022/12/20 09:45:24;;;;;;;22.77;15.77;;;5.60;35.60;;;;;;4968240;28;20466;-72
2022/12/20 09:47:53;;;;;;;22.40;15.83;;;5.60;35.30;;;;;;4969730;28;20552;-74
2022/12/20 09:50:27;;;;;;;20.67;15.57;;;5.60;35.10;;;;;;4964987;28;20552;-75
2022/12/20 09:53:10;;;;;;;26.40;17.67;;;5.60;35.40;;;;;;4963171;28;20469;-75
2022/12/20 09:55:43;;;;;;;23.83;16.63;;;5.60;35.40;;;;;;4972678;28;20457;-81
2022/12/20 09:58:26;;;;;;;24.37;16.90;;;5.70;35.50;;;;;;4963006;28;21065;-75
2022/12/20 10:00:53;;;;;;;23.20;13.93;;;5.70;35.50;;;;;;4965274;28;20478;-72
2022/12/20 10:03:24;;;;;;;26.00;14.33;;;5.70;35.40;;;;;;4959794;28;20503;-73
2022/12/20 10:05:54;;;;;;;24.83;16.67;;;5.80;35.40;;;;;;4960917;28;20533;-72
2022/12/20 10:08:42;;;;;;;29.23;18.30;;;5.80;35.20;;;;;;4966939;28;20466;-76
2022/12/20 10:11:13;;;;;;;27.00;17.13;;;5.80;35.20;;;;;;4964952;28;21147;-73
2022/12/20 10:13:55;;;;;;;21.07;15.13;;;5.80;35.30;;;;;;4966692;28;20526;-72
2022/12/20 10:16:39;;;;;;;28.10;17.10;;;5.80;35.30;;;;;;4965931;28;20505;-71
2022/12/20 10:19:22;;;;;;;27.63;17.87;;;5.80;35.40;;;;;;4962985;28;20867;-71
2022/12/20 10:21:56;;;;;;;25.03;15.87;;;5.80;35.20;;;;;;4968681;28;20465;-71
2022/12/20 10:24:29;;;;;;;27.03;15.67;;;5.90;35.10;;;;;;4968464;28;20761;-75
2022/12/20 10:26:58;;;;;;;22.30;13.97;;;5.90;35.00;;;;;;4962245;28;20569;-69
2022/12/20 10:29:25;;;;;;;23.30;14.30;;;6.00;35.00;;;;;;4959819;28;20470;-75
2022/12/20 10:31:58;;;;;;;20.60;12.27;;;6.10;34.80;;;;;;4963288;28;20482;-80
2022/12/20 10:34:27;;;;;;;27.20;16.17;;;6.20;34.00;;;;;;4964633;28;20489;-80
2022/12/20 10:37:11;;;;;;;21.20;15.37;;;6.30;34.30;;;;;;4962615;28;20540;-79
2022/12/20 10:39:42;;;;;;;25.83;14.77;;;6.30;34.00;;;;;;4965946;28;20466;-72
2022/12/20 10:42:25;;;;;;;26.13;17.70;;;6.40;33.90;;;;;;4960292;28;20524;-70
2022/12/20 10:44:52;;;;;;;28.27;16.37;;;6.50;33.50;;;;;;4961997;28;20517;-67
2022/12/20 10:47:29;;;;;;;26.80;14.93;;;6.60;32.80;;;;;;4963102;28;20516;-71
2022/12/20 10:50:09;;;;;;;26.23;12.50;;;6.60;33.10;;;;;;4964603;28;21303;-70
2022/12/20 10:52:36;;;;;;;19.50;11.50;;;6.70;33.10;;;;;;4961414;28;20461;-78
2022/12/20 10:55:07;;;;;;;23.60;12.40;;;6.80;32.80;;;;;;4972446;28;20580;-78
2022/12/20 10:57:35;;;;;;;19.30;13.10;;;6.80;32.50;;;;;;4969482;28;20536;-67
2022/12/20 11:00:07;;;;;;;24.53;15.40;;;6.80;32.40;;;;;;4959892;28;20465;-68
2022/12/20 11:02:36;;;;;;;21.50;14.83;;;6.80;32.40;;;;;;4966788;28;20485;-67
2022/12/20 11:05:21;;;;;;;23.57;14.97;;;6.90;32.50;;;;;;4967547;28;20532;-68
2022/12/20 11:07:55;;;;;;;25.20;15.43;;;6.90;32.50;;;;;;4960135;28;20489;-67
2022/12/20 11:10:25;;;;;;;23.50;15.17;;;6.90;32.30;;;;;;4965529;28;20463;-66
2022/12/20 11:12:53;;;;;;;21.07;14.33;;;6.90;32.30;;;;;;4959441;28;20542;-65
2022/12/20 11:15:22;;;;;;;21.83;14.60;;;6.90;32.40;;;;;;4964434;28;21016;-65
2022/12/20 11:17:52;;;;;;;16.67;11.83;;;7.00;32.50;;;;;;4959003;28;20540;-64
2022/12/20 11:20:31;;;;;;;19.90;14.10;;;7.10;32.20;;;;;;4963713;28;20989;-66
2022/12/20 11:23:09;;;;;;;21.60;13.73;;;7.20;32.00;;;;;;4966927;28;20520;-67
2022/12/20 11:25:50;;;;;;;19.47;14.23;;;7.30;31.60;;;;;;4964519;28;20469;-67
2022/12/20 11:28:40;;;;;;;21.73;14.20;;;7.30;31.70;;;;;;4961902;28;20461;-64
2022/12/20 11:31:14;;;;;;;22.00;13.90;;;7.30;31.70;;;;;;4965658;28;20478;-72
2022/12/20 11:34:07;;;;;;;21.73;15.40;;;7.20;31.60;;;;;;4961089;28;20494;-71
2022/12/20 11:36:49;;;;;;;23.37;14.27;;;7.20;31.60;;;;;;4962178;28;20552;-75
2022/12/20 11:39:26;;;;;;;20.97;13.60;;;7.20;31.80;;;;;;4963098;28;20462;-74
2022/12/20 11:42:03;;;;;;;23.80;14.00;;;7.20;31.90;;;;;;4965224;28;20470;-68
2022/12/20 11:44:40;;;;;;;19.40;12.40;;;7.20;31.80;;;;;;4965182;28;20461;-74
2022/12/20 11:47:27;;;;;;;18.40;12.60;;;7.30;31.70;;;;;;4965377;28;20477;-73
2022/12/20 11:50:11;;;;;;;22.93;14.50;;;7.30;31.70;;;;;;4963260;28;20501;-71
2022/12/20 11:52:45;;;;;;;25.73;17.00;;;7.40;31.30;;;;;;4965913;28;20462;-72
2022/12/20 11:55:21;;;;;;;32.67;14.90;;;7.40;31.20;;;;;;4965652;28;20481;-70
2022/12/20 11:58:00;;;;;;;22.57;15.87;;;7.40;30.80;;;;;;4959976;28;20567;-71
2022/12/20 12:00:27;;;;;;;28.93;14.27;;;7.50;30.90;;;;;;4962896;28;20980;-70
2022/12/20 12:02:59;;;;;;;19.97;14.17;;;7.50;30.70;;;;;;4965539;28;20466;-71
2022/12/20 12:05:35;;;;;;;22.57;12.93;;;7.50;30.50;;;;;;4964100;28;20557;-73
2022/12/20 12:08:07;;;;;;;23.50;13.07;;;7.50;30.40;;;;;;4968496;28;20477;-62
2022/12/20 12:10:38;;;;;;;21.47;13.97;;;7.50;30.50;;;;;;4962700;28;20473;-66
2022/12/20 12:13:16;;;;;;;19.70;12.60;;;7.60;30.30;;;;;;4960777;28;20473;-64
2022/12/20 12:15:52;;;;;;;21.70;13.20;;;7.60;30.00;;;;;;4967319;28;20485;-64
2022/12/20 12:18:22;;;;;;;24.10;11.70;;;7.70;29.50;;;;;;4964270;28;21033;-65
2022/12/20 12:20:56;;;;;;;17.40;12.43;;;7.70;29.30;;;;;;4963028;28;20521;-63
2022/12/20 12:23:29;;;;;;;20.77;12.33;;;7.70;29.40;;;;;;4965325;28;20535;-63
2022/12/20 12:25:59;;;;;;;20.90;15.67;;;7.70;29.40;;;;;;4973448;28;20974;-63
2022/12/20 12:28:26;;;;;;;24.20;15.43;;;7.70;29.50;;;;;;4965959;28;20462;-64
2022/12/20 12:30:58;;;;;;;25.97;13.73;;;7.60;29.40;;;;;;4965501;28;20989;-65
2022/12/20 12:33:30;;;;;;;23.17;13.73;;;7.60;29.50;;;;;;4968896;28;20469;-64
2022/12/20 12:36:25;;;;;;;20.40;14.10;;;7.60;29.60;;;;;;4963051;28;21272;-75
2022/12/20 12:39:25;;;;;;;22.47;14.13;;;7.50;29.30;;;;;;4970916;23;20540;-72
2022/12/20 12:42:12;;;;;;;23.33;14.97;;;7.50;29.30;;;;;;4959622;28;20943;-72
2022/12/20 12:44:46;;;;;;;21.87;13.20;;;7.50;29.40;;;;;;4967156;28;20465;-72
2022/12/20 12:47:20;;;;;;;21.03;13.43;;;7.40;29.40;;;;;;4964979;28;20469;-74
2022/12/20 12:49:51;;;;;;;23.77;14.27;;;7.40;29.60;;;;;;4969905;28;20540;-78
2022/12/20 12:52:37;;;;;;;18.87;13.33;;;7.30;29.60;;;;;;4966020;28;20470;-75
2022/12/20 12:55:43;;;;;;;24.53;14.43;;;7.30;29.90;;;;;;4960942;28;20481;-77